Time;durP1;ratioP1;P1;durP2;ratioP2;P2;SDS_P1;SDS_P2;PMS_P1;PMS_P2;Temp;Humidity;BMP_temperature;BMP_pressure;BME280_temperature;BME280_humidity;BME280_pressure;Samples;Min_cycle;Max_cycle;Signal;HPM_P1;HPM_P2
2024/04/14 11:54:45;;;;;;;6.78;2.10;;;16.30;63.40;;;;;;3172092;28;20059;-81
2024/04/14 11:57:18;;;;;;;7.25;1.60;;;16.30;64.20;;;;;;4731347;30;20075;-83
2024/04/14 11:59:43;;;;;;;5.78;1.65;;;16.50;64.10;;;;;;4717855;30;20454;-81
2024/04/14 12:02:09;;;;;;;5.20;1.50;;;16.50;64.00;;;;;;4746181;30;20060;-79
2024/04/14 12:04:35;;;;;;;7.32;1.48;;;16.50;64.20;;;;;;4726537;30;20607;-77
2024/04/14 12:07:01;;;;;;;5.57;1.40;;;16.60;64.50;;;;;;4748950;30;20056;-75
2024/04/14 12:09:26;;;;;;;7.13;1.48;;;16.70;64.00;;;;;;4731245;30;20109;-74
2024/04/14 12:11:53;;;;;;;6.35;1.48;;;16.70;63.70;;;;;;4733855;30;20145;-74
2024/04/14 12:14:19;;;;;;;5.15;1.45;;;16.70;63.70;;;;;;4748731;30;20082;-74
2024/04/14 12:16:45;;;;;;;7.65;1.45;;;16.80;63.70;;;;;;4734105;30;20065;-73
2024/04/14 12:19:11;;;;;;;7.20;1.90;;;16.80;64.00;;;;;;4749021;30;20067;-74
2024/04/14 12:21:37;;;;;;;6.55;1.45;;;16.90;64.40;;;;;;4733619;30;20052;-73
2024/04/14 12:24:03;;;;;;;5.30;1.40;;;16.90;64.20;;;;;;4733304;30;20425;-73
2024/04/14 12:26:30;;;;;;;4.18;1.33;;;17.10;64.40;;;;;;4734250;30;20126;-74
2024/04/14 12:28:55;;;;;;;8.55;1.45;;;17.30;63.70;;;;;;4744801;30;20064;-73
2024/04/14 12:31:21;;;;;;;6.47;1.70;;;17.40;63.40;;;;;;4766033;30;20559;-73
2024/04/14 12:33:46;;;;;;;9.68;1.85;;;17.50;63.30;;;;;;4752407;30;20070;-73
2024/04/14 12:36:12;;;;;;;5.78;1.52;;;17.60;63.40;;;;;;4765626;30;20066;-73
2024/04/14 12:38:38;;;;;;;8.13;1.63;;;17.60;62.90;;;;;;4765640;30;20117;-73
2024/04/14 12:41:03;;;;;;;4.90;1.20;;;17.60;62.70;;;;;;4769955;30;20066;-73
2024/04/14 12:43:29;;;;;;;4.38;1.50;;;17.60;62.90;;;;;;4766003;30;20051;-73
2024/04/14 12:45:55;;;;;;;6.60;1.45;;;17.70;62.90;;;;;;4768753;30;20052;-73
2024/04/14 12:48:21;;;;;;;6.55;1.55;;;17.80;62.80;;;;;;4760576;30;20423;-73
2024/04/14 12:50:51;;;;;;;8.18;1.52;;;17.90;62.70;;;;;;4761073;30;20113;-73
2024/04/14 12:53:20;;;;;;;7.45;1.58;;;17.90;62.90;;;;;;4764465;30;20873;-73
2024/04/14 12:55:46;;;;;;;5.63;1.27;;;18.00;62.70;;;;;;4767461;30;20063;-73
2024/04/14 12:58:13;;;;;;;7.07;1.50;;;18.20;62.80;;;;;;4767710;30;20106;-74
2024/04/14 13:00:39;;;;;;;7.43;1.52;;;18.40;63.00;;;;;;4766806;30;20055;-74
2024/04/14 13:03:05;;;;;;;5.40;1.33;;;18.60;62.80;;;;;;4765022;30;20060;-74
2024/04/14 13:05:31;;;;;;;7.47;1.67;;;18.60;62.40;;;;;;4765066;30;20066;-74
2024/04/14 13:07:57;;;;;;;6.72;1.27;;;18.70;62.00;;;;;;4765615;30;20160;-73
2024/04/14 13:10:23;;;;;;;10.00;1.38;;;18.90;61.20;;;;;;4753293;30;20055;-73
2024/04/14 13:12:49;;;;;;;7.80;1.30;;;18.60;61.60;;;;;;4764851;30;20056;-73
2024/04/14 13:15:15;;;;;;;10.00;1.33;;;18.20;61.70;;;;;;4751608;30;20120;-73
2024/04/14 13:17:40;;;;;;;4.50;1.35;;;18.00;61.70;;;;;;4765145;30;20411;-73
2024/04/14 13:20:07;;;;;;;6.43;1.30;;;17.80;61.60;;;;;;4775147;30;20095;-73
2024/04/14 13:22:33;;;;;;;6.88;1.35;;;17.90;61.10;;;;;;4766149;30;20121;-73
2024/04/14 13:24:59;;;;;;;3.47;1.00;;;18.10;61.10;;;;;;4759165;30;20429;-73
2024/04/14 13:27:24;;;;;;;5.78;1.10;;;18.40;60.80;;;;;;4756618;30;20381;-73
2024/04/14 13:29:50;;;;;;;5.55;1.30;;;18.50;61.10;;;;;;4755864;30;20775;-74
2024/04/14 13:32:17;;;;;;;4.00;1.65;;;19.00;61.50;;;;;;4755986;30;20075;-74
2024/04/14 13:34:48;;;;;;;3.70;0.85;;;19.30;61.30;;;;;;4763273;30;20056;-74
2024/04/14 13:37:13;;;;;;;9.73;1.40;;;19.50;61.20;;;;;;4764914;30;20095;-73
2024/04/14 13:39:39;;;;;;;6.70;1.27;;;19.40;61.00;;;;;;4778821;29;20098;-73
2024/04/14 13:42:04;;;;;;;6.10;1.48;;;19.50;61.30;;;;;;4749112;30;20494;-73
2024/04/14 13:44:32;;;;;;;6.35;1.27;;;19.10;60.90;;;;;;4776881;30;20257;-73
2024/04/14 13:46:57;;;;;;;5.25;0.82;;;18.90;60.90;;;;;;4774806;30;20051;-73
2024/04/14 13:49:23;;;;;;;5.25;1.45;;;19.00;61.20;;;;;;4772537;30;20227;-74
2024/04/14 13:51:48;;;;;;;4.47;1.00;;;19.40;61.30;;;;;;4763756;30;20095;-73
2024/04/14 13:54:14;;;;;;;6.60;1.45;;;20.10;61.40;;;;;;4766862;30;20500;-74
2024/04/14 13:56:40;;;;;;;5.35;1.02;;;20.50;61.20;;;;;;4766890;30;20527;-74
2024/04/14 13:59:05;;;;;;;4.32;1.05;;;20.80;60.60;;;;;;4763753;30;20146;-74
2024/04/14 14:01:31;;;;;;;5.85;1.30;;;20.80;60.40;;;;;;4765598;30;20055;-74
2024/04/14 14:03:57;;;;;;;10.23;1.40;;;20.50;60.20;;;;;;4767022;30;20055;-73
2024/04/14 14:06:22;;;;;;;3.83;1.00;;;20.40;59.30;;;;;;4749691;30;20043;-74
2024/04/14 14:08:48;;;;;;;5.03;0.90;;;20.20;58.60;;;;;;4768731;30;20515;-74
2024/04/14 14:11:14;;;;;;;4.57;1.08;;;20.00;59.10;;;;;;4772643;30;20481;-73
2024/04/14 14:13:40;;;;;;;4.00;1.33;;;20.00;58.10;;;;;;4768034;30;20063;-73
2024/04/14 14:16:06;;;;;;;4.10;0.95;;;20.20;58.80;;;;;;4772304;30;20059;-72
2024/04/14 14:18:32;;;;;;;6.93;1.00;;;20.50;59.00;;;;;;4764441;30;20470;-72
2024/04/14 14:20:58;;;;;;;4.30;0.90;;;20.40;58.50;;;;;;4764034;30;20051;-73
2024/04/14 14:23:24;;;;;;;4.95;1.02;;;20.70;59.80;;;;;;4764477;29;20094;-74
2024/04/14 14:25:49;;;;;;;3.35;1.00;;;21.10;60.20;;;;;;4755523;30;20291;-74
2024/04/14 14:28:15;;;;;;;7.82;1.58;;;21.40;60.10;;;;;;4760566;30;20602;-74
2024/04/14 14:30:40;;;;;;;6.15;1.10;;;21.50;60.10;;;;;;4765671;30;20063;-74
2024/04/14 14:38:34;;;;;;;5.05;0.95;;;21.90;58.30;;;;;;4763721;30;20060;-73
2024/04/14 14:41:00;;;;;;;6.15;1.15;;;21.80;57.40;;;;;;4763487;30;20060;-73
2024/04/14 14:43:26;;;;;;;3.42;0.75;;;21.50;55.80;;;;;;4763758;30;20059;-73
2024/04/14 14:45:51;;;;;;;4.78;1.00;;;20.70;55.40;;;;;;4773874;30;20138;-73
2024/04/14 14:48:17;;;;;;;5.85;1.08;;;19.80;55.70;;;;;;4765711;30;20095;-74
2024/04/14 14:50:43;;;;;;;4.75;1.50;;;19.20;55.80;;;;;;4748575;30;20052;-74
2024/04/14 14:53:08;;;;;;;6.68;1.10;;;18.80;55.70;;;;;;4766150;30;20137;-74
2024/04/14 14:55:35;;;;;;;4.43;1.20;;;18.60;56.30;;;;;;4763450;30;20063;-73
2024/04/14 14:58:00;;;;;;;4.30;1.10;;;18.50;55.90;;;;;;4767208;30;20911;-73
2024/04/14 15:00:26;;;;;;;4.65;1.00;;;18.20;53.90;;;;;;4771892;30;20055;-73
2024/04/14 15:02:52;;;;;;;6.57;1.17;;;17.80;53.50;;;;;;4752851;30;20051;-73
2024/04/14 15:05:18;;;;;;;5.60;1.25;;;17.40;54.30;;;;;;4748711;30;20527;-72
2024/04/14 15:07:48;;;;;;;4.13;1.10;;;17.10;54.30;;;;;;4763211;30;20116;-73
2024/04/14 15:10:14;;;;;;;5.00;1.20;;;17.00;55.90;;;;;;4750086;30;20159;-73
2024/04/14 15:12:41;;;;;;;4.20;1.42;;;16.90;55.00;;;;;;4762925;30;20064;-73
2024/04/14 15:15:07;;;;;;;5.07;1.25;;;16.70;55.50;;;;;;4763623;30;20519;-72
2024/04/14 15:17:33;;;;;;;4.85;1.30;;;16.60;57.10;;;;;;4767402;30;20052;-72
2024/04/14 15:19:58;;;;;;;4.53;1.20;;;16.60;56.90;;;;;;4781761;30;20507;-71
2024/04/14 15:22:24;;;;;;;7.47;1.30;;;16.40;58.40;;;;;;4750676;30;20516;-73
2024/04/14 15:24:50;;;;;;;7.93;1.50;;;16.40;57.40;;;;;;4763582;30;20174;-72
2024/04/14 15:27:19;;;;;;;5.40;1.35;;;16.20;56.80;;;;;;4753484;30;20575;-73
2024/04/14 15:29:45;;;;;;;7.78;1.63;;;16.10;57.30;;;;;;4775802;29;20478;-73
2024/04/14 15:32:11;;;;;;;6.90;1.23;;;16.00;58.50;;;;;;4733599;30;20051;-73
2024/04/14 15:34:37;;;;;;;7.07;1.55;;;15.90;59.10;;;;;;4769147;30;20047;-74
2024/04/14 15:37:03;;;;;;;6.68;1.17;;;16.00;59.80;;;;;;4774938;29;20066;-73
2024/04/14 15:39:29;;;;;;;6.65;1.50;;;16.00;58.90;;;;;;4769924;30;20499;-73
2024/04/14 15:41:55;;;;;;;7.45;1.55;;;15.90;58.20;;;;;;4774928;30;20425;-73
2024/04/14 15:44:20;;;;;;;6.18;1.42;;;15.80;59.20;;;;;;4766499;30;20059;-73
2024/04/14 15:46:47;;;;;;;9.60;1.75;;;15.90;59.60;;;;;;4766689;30;20494;-72
2024/04/14 15:49:13;;;;;;;6.63;1.73;;;15.90;60.00;;;;;;4769309;30;20439;-73
2024/04/14 15:51:38;;;;;;;6.72;1.40;;;15.90;60.10;;;;;;4766163;30;20047;-73
2024/04/14 15:54:04;;;;;;;5.38;1.20;;;15.90;60.10;;;;;;4754822;30;20515;-73
2024/04/14 15:56:30;;;;;;;2.85;1.13;;;15.80;59.30;;;;;;4768153;30;20063;-73
2024/04/14 15:58:55;;;;;;;3.60;1.20;;;15.70;59.60;;;;;;4767661;30;20501;-72
2024/04/14 16:01:22;;;;;;;5.10;1.60;;;15.70;60.00;;;;;;4769114;30;20416;-73
2024/04/14 16:03:47;;;;;;;6.22;1.50;;;15.70;60.10;;;;;;4772691;30;20055;-72
2024/04/14 16:06:13;;;;;;;5.03;1.13;;;15.60;60.10;;;;;;4766142;30;20070;-72
2024/04/14 16:08:39;;;;;;;5.72;1.80;;;15.50;59.70;;;;;;4768742;30;20101;-72
2024/04/14 16:11:06;;;;;;;8.43;1.20;;;15.40;59.70;;;;;;4775239;30;20120;-73
2024/04/14 16:13:34;;;;;;;7.38;1.45;;;15.30;59.30;;;;;;4771443;30;20106;-73
2024/04/14 16:16:10;;;;;;;6.28;1.48;;;15.30;60.00;;;;;;4776266;30;20070;-73
2024/04/14 16:18:37;;;;;;;8.73;1.55;;;15.20;60.10;;;;;;4771285;30;20056;-73
2024/04/14 16:21:04;;;;;;;6.00;1.30;;;15.10;60.00;;;;;;4766333;30;20047;-73
2024/04/14 16:23:32;;;;;;;4.68;1.33;;;15.10;60.00;;;;;;4767055;30;20047;-73
2024/04/14 16:25:58;;;;;;;6.35;1.33;;;15.00;59.40;;;;;;4773610;30;20072;-73
2024/04/14 16:28:24;;;;;;;6.78;1.50;;;14.90;59.80;;;;;;4761902;30;20075;-75
2024/04/14 16:30:49;;;;;;;6.63;1.77;;;14.80;60.20;;;;;;4777967;30;20055;-75
2024/04/14 16:33:18;;;;;;;5.10;1.42;;;14.80;60.20;;;;;;4765812;30;20051;-78
2024/04/14 16:35:44;;;;;;;6.35;1.50;;;14.80;60.40;;;;;;4765855;30;20065;-82
2024/04/14 16:38:10;;;;;;;5.25;1.27;;;14.80;60.50;;;;;;4770973;30;20146;-82
2024/04/14 16:40:55;;;;;;;5.25;1.40;;;14.70;60.60;;;;;;4742303;30;20056;-82
2024/04/14 22:02:00;;;;;;;12.10;3.00;;;9.50;76.40;;;;;;4721241;30;20068;-81
2024/04/14 22:05:07;;;;;;;17.05;3.22;;;9.50;76.20;;;;;;4699358;30;20049;-81
2024/04/14 22:26:53;;;;;;;9.93;3.10;;;9.40;76.30;;;;;;4580324;31;20128;-83
2024/04/14 22:29:47;;;;;;;10.73;3.73;;;9.40;76.40;;;;;;4583527;30;20064;-83
2024/04/14 22:33:24;;;;;;;10.30;2.95;;;9.40;76.30;;;;;;4684881;30;20100;-83
2024/04/14 22:36:12;;;;;;;14.50;3.47;;;9.40;76.60;;;;;;4746113;30;20044;-83
2024/04/14 22:39:34;;;;;;;9.77;3.40;;;9.40;77.10;;;;;;4717777;30;20105;-83
2024/04/14 22:42:30;;;;;;;18.85;3.28;;;9.40;76.90;;;;;;4748104;30;20068;-83
2024/04/14 22:45:08;;;;;;;10.90;3.35;;;9.40;76.90;;;;;;4741616;30;20134;-83
2024/04/14 22:47:43;;;;;;;10.68;2.92;;;9.40;77.00;;;;;;4752512;30;20061;-83
2024/04/14 22:50:09;;;;;;;13.88;3.35;;;9.50;76.80;;;;;;4737729;30;20520;-83
2024/04/14 22:52:34;;;;;;;15.55;4.25;;;9.50;76.90;;;;;;4724395;30;20062;-83
2024/04/14 22:55:00;;;;;;;7.97;3.05;;;9.40;77.00;;;;;;4732261;30;20052;-83
2024/04/14 22:57:26;;;;;;;12.32;3.88;;;9.50;77.00;;;;;;4761323;30;20128;-83
2024/04/14 22:59:51;;;;;;;13.35;4.10;;;9.50;77.10;;;;;;4766188;30;20166;-83
2024/04/14 23:02:17;;;;;;;19.20;4.05;;;9.50;77.10;;;;;;4736918;30;20051;-83
2024/04/14 23:04:43;;;;;;;15.43;3.97;;;9.50;77.10;;;;;;4763385;30;20071;-81
2024/04/14 23:07:09;;;;;;;13.80;3.17;;;9.50;77.10;;;;;;4756001;30;20059;-81
2024/04/14 23:09:35;;;;;;;13.45;4.00;;;9.50;77.00;;;;;;4763237;30;20102;-81
2024/04/14 23:12:00;;;;;;;13.55;3.92;;;9.40;77.00;;;;;;4766054;30;20378;-81
2024/04/14 23:14:26;;;;;;;11.88;3.63;;;9.50;77.00;;;;;;4765468;30;20116;-81
2024/04/14 23:16:52;;;;;;;15.43;3.85;;;9.40;77.10;;;;;;4758396;30;20500;-81
2024/04/14 23:19:18;;;;;;;9.45;3.08;;;9.30;77.10;;;;;;4752267;30;20064;-80
2024/04/14 23:21:43;;;;;;;11.20;3.70;;;9.30;77.20;;;;;;4748558;30;20570;-79
2024/04/14 23:24:09;;;;;;;11.77;4.22;;;9.30;77.30;;;;;;4757342;30;20079;-79
2024/04/14 23:26:35;;;;;;;14.15;3.85;;;9.20;77.40;;;;;;4754605;30;20165;-78
2024/04/14 23:29:00;;;;;;;15.25;3.50;;;9.20;77.40;;;;;;4765355;30;20584;-78
2024/04/14 23:31:26;;;;;;;12.20;3.95;;;9.20;77.50;;;;;;4766276;30;20493;-78
2024/04/14 23:33:52;;;;;;;10.65;4.13;;;9.20;77.70;;;;;;4764745;30;20055;-79
2024/04/14 23:36:17;;;;;;;14.82;4.15;;;9.10;77.70;;;;;;4755843;30;20083;-79
2024/04/14 23:38:43;;;;;;;12.50;3.75;;;9.10;77.70;;;;;;4763612;30;20432;-78
2024/04/14 23:41:09;;;;;;;15.15;3.70;;;9.10;77.70;;;;;;4747505;30;20054;-78
2024/04/14 23:43:34;;;;;;;12.75;4.28;;;9.10;77.60;;;;;;4765362;30;20535;-75
2024/04/14 23:46:00;;;;;;;18.48;4.32;;;9.20;77.60;;;;;;4759800;30;20092;-76
2024/04/14 23:48:26;;;;;;;16.35;5.28;;;9.10;77.60;;;;;;4752465;30;20060;-76
2024/04/14 23:50:51;;;;;;;13.15;4.50;;;9.00;77.50;;;;;;4763403;30;20063;-77
2024/04/14 23:53:17;;;;;;;17.58;5.25;;;8.90;77.50;;;;;;4748856;30;20087;-77
2024/04/14 23:55:46;;;;;;;16.05;5.20;;;8.90;77.60;;;;;;4750337;30;20064;-77
2024/04/14 23:58:11;;;;;;;13.63;4.93;;;8.90;77.60;;;;;;4767482;30;20052;-77
